createdAt,value
2019-03-09T00:01:17.371Z,89.70
2019-03-09T00:03:43.407Z,88.90
2019-03-09T00:06:09.408Z,88.90
2019-03-09T00:08:35.422Z,88.40
2019-03-09T00:11:01.439Z,88.00
2019-03-09T00:13:27.459Z,88.30
2019-03-09T00:15:53.465Z,88.40
2019-03-09T00:18:19.493Z,87.80
2019-03-09T00:20:45.506Z,87.70
2019-03-09T00:23:13.415Z,87.90
2019-03-09T00:25:58.036Z,88.20
2019-03-09T00:28:29.231Z,87.60
2019-03-09T00:31:06.431Z,87.50
2019-03-09T00:33:32.427Z,86.70
2019-03-09T00:35:58.486Z,86.50
2019-03-09T00:38:24.509Z,87.40
2019-03-09T00:40:50.527Z,87.90
2019-03-09T00:43:16.671Z,88.00
2019-03-09T00:45:42.974Z,88.70
2019-03-09T00:48:09.008Z,88.80
2019-03-09T00:50:35.372Z,88.80
2019-03-09T00:53:01.388Z,89.10
2019-03-09T00:55:27.411Z,88.80
2019-03-09T00:57:53.434Z,88.40
2019-03-09T01:00:19.447Z,88.10
2019-03-09T01:02:45.574Z,86.70
2019-03-09T01:05:11.982Z,86.60
2019-03-09T01:07:38.007Z,86.60
2019-03-09T01:10:12.931Z,86.10
2019-03-09T01:12:39.508Z,86.60
2019-03-09T01:15:06.838Z,87.30
2019-03-09T01:17:32.908Z,87.30
2019-03-09T01:19:58.919Z,87.10
2019-03-09T01:22:24.936Z,87.30
2019-03-09T01:24:50.951Z,87.60
2019-03-09T01:27:16.965Z,87.40
2019-03-09T01:29:42.978Z,87.00
2019-03-09T01:32:09.311Z,87.40
2019-03-09T01:34:35.643Z,88.60
2019-03-09T01:37:01.668Z,88.40
2019-03-09T01:39:27.666Z,88.70
2019-03-09T01:41:53.716Z,88.10
2019-03-09T01:44:19.750Z,87.70
2019-03-09T01:46:46.087Z,87.60
2019-03-09T01:49:12.116Z,87.40
2019-03-09T01:51:38.422Z,87.70
2019-03-09T01:54:04.451Z,87.50
2019-03-09T01:56:30.782Z,87.10
2019-03-09T01:58:56.806Z,87.10
2019-03-09T02:01:22.817Z,87.20
2019-03-09T02:03:48.837Z,86.60
2019-03-09T02:06:15.184Z,86.40
2019-03-09T02:08:41.198Z,85.50
2019-03-09T02:11:07.234Z,85.30
2019-03-09T02:13:33.241Z,84.40
2019-03-09T02:15:59.272Z,83.90
2019-03-09T02:18:25.307Z,83.50
2019-03-09T02:20:51.324Z,83.00
2019-03-09T02:23:17.658Z,83.20
2019-03-09T02:25:43.687Z,82.60
2019-03-09T02:28:10.026Z,81.90
2019-03-09T02:30:36.053Z,81.70
2019-03-09T02:33:02.251Z,81.20
2019-03-09T02:35:28.282Z,80.90
2019-03-09T02:37:55.086Z,81.00
2019-03-09T02:40:23.427Z,80.60
2019-03-09T02:42:49.530Z,81.00
2019-03-09T02:45:20.387Z,80.70
2019-03-09T02:47:46.415Z,80.20
2019-03-09T02:50:13.723Z,80.10
2019-03-09T02:52:39.734Z,79.70
2019-03-09T02:55:07.576Z,80.20
2019-03-09T02:57:33.878Z,80.90
2019-03-09T03:00:01.115Z,80.20
2019-03-09T03:02:29.809Z,80.10
2019-03-09T03:04:55.973Z,81.20
2019-03-09T03:07:21.994Z,82.60
2019-03-09T03:09:48.000Z,83.40
2019-03-09T03:12:14.004Z,84.70
2019-03-09T03:14:40.018Z,86.10
2019-03-09T03:17:06.068Z,86.30
2019-03-09T03:19:32.074Z,86.60
2019-03-09T03:21:58.074Z,87.10
2019-03-09T03:24:24.104Z,87.50
2019-03-09T03:26:50.376Z,88.00
2019-03-09T03:29:16.702Z,87.70
2019-03-09T03:31:43.031Z,87.50
2019-03-09T03:34:09.371Z,87.60
2019-03-09T03:36:35.375Z,88.30
2019-03-09T03:39:01.826Z,89.40
2019-03-09T03:41:28.159Z,90.80
2019-03-09T03:43:54.591Z,92.20
2019-03-09T03:46:20.926Z,93.10
2019-03-09T03:48:46.948Z,94.10
2019-03-09T03:51:13.274Z,94.60
2019-03-09T03:53:39.301Z,95.30
2019-03-09T03:56:05.634Z,96.10
2019-03-09T03:58:31.966Z,97.60
2019-03-09T04:00:58.306Z,98.60
2019-03-09T04:03:24.629Z,99.50
2019-03-09T04:05:50.644Z,99.90
2019-03-09T04:08:17.079Z,99.90
2019-03-09T04:10:43.100Z,99.90
2019-03-09T04:13:09.218Z,99.90
2019-03-09T04:15:35.238Z,99.90
2019-03-09T04:18:01.233Z,99.90
2019-03-09T04:20:27.253Z,99.90
2019-03-09T04:22:53.279Z,99.90
2019-03-09T04:25:19.281Z,99.90
2019-03-09T04:27:45.298Z,99.90
2019-03-09T04:30:12.232Z,99.90
2019-03-09T04:32:38.553Z,99.90
2019-03-09T04:35:05.289Z,99.90
2019-03-09T04:37:31.290Z,99.90
2019-03-09T04:39:57.561Z,99.90
2019-03-09T04:42:23.684Z,99.90
2019-03-09T04:44:49.909Z,99.90
2019-03-09T04:47:15.939Z,99.90
2019-03-09T04:49:41.961Z,99.90
2019-03-09T04:52:07.989Z,99.90
2019-03-09T04:54:34.007Z,99.90
2019-03-09T04:57:00.022Z,99.90
2019-03-09T04:59:26.035Z,99.90
2019-03-09T05:01:52.067Z,99.90
2019-03-09T05:04:21.873Z,99.90
2019-03-09T05:06:47.911Z,99.90
2019-03-09T05:09:17.733Z,99.90
2019-03-09T05:11:43.873Z,99.90
2019-03-09T05:14:09.897Z,99.90
2019-03-09T05:16:35.893Z,99.90
2019-03-09T05:19:01.911Z,99.90
2019-03-09T05:21:27.937Z,99.90
2019-03-09T05:23:53.946Z,99.90
2019-03-09T05:26:20.201Z,99.90
2019-03-09T05:28:46.538Z,99.90
2019-03-09T05:31:12.875Z,99.90
2019-03-09T05:33:38.892Z,99.90
2019-03-09T05:36:04.900Z,99.90
2019-03-09T05:38:31.255Z,99.90
2019-03-09T05:40:57.582Z,99.90
2019-03-09T05:43:23.828Z,99.90
2019-03-09T05:45:49.845Z,99.90
2019-03-09T05:48:15.850Z,99.90
2019-03-09T05:50:41.859Z,99.90
2019-03-09T05:53:13.989Z,99.90
2019-03-09T05:55:40.014Z,99.90
2019-03-09T05:58:06.014Z,99.90
2019-03-09T06:00:33.131Z,99.90
2019-03-09T06:02:59.117Z,99.90
2019-03-09T06:05:28.253Z,99.90
2019-03-09T06:07:54.258Z,99.90
2019-03-09T06:10:20.268Z,99.90
2019-03-09T06:12:46.314Z,99.90
2019-03-09T06:15:12.326Z,99.90
2019-03-09T06:17:38.594Z,99.90
2019-03-09T06:20:04.935Z,99.90
2019-03-09T06:22:31.261Z,99.90
2019-03-09T06:24:57.279Z,99.90
2019-03-09T06:27:23.279Z,99.90
2019-03-09T06:29:49.291Z,99.90
2019-03-09T06:32:34.728Z,99.90
2019-03-09T06:35:01.250Z,99.90
2019-03-09T06:37:28.506Z,99.90
2019-03-09T06:39:55.714Z,99.90
2019-03-09T06:42:34.564Z,99.90
2019-03-09T06:45:00.598Z,99.90
2019-03-09T06:47:26.730Z,99.90
2019-03-09T06:49:52.717Z,99.90
2019-03-09T06:52:18.978Z,99.90
2019-03-09T06:54:44.998Z,99.90
2019-03-09T06:57:14.138Z,99.90
2019-03-09T06:59:38.959Z,99.90
2019-03-09T07:02:04.980Z,99.90
2019-03-09T07:04:31.128Z,99.90
2019-03-09T07:06:57.193Z,99.90
2019-03-09T07:09:23.216Z,99.90
2019-03-09T07:11:49.230Z,99.90
2019-03-09T07:14:54.152Z,99.90
2019-03-09T07:17:20.166Z,99.90
2019-03-09T07:19:46.199Z,99.90
2019-03-09T07:22:12.225Z,99.90
2019-03-09T07:24:38.561Z,99.90
2019-03-09T07:27:04.581Z,99.90
2019-03-09T07:29:30.615Z,99.20
2019-03-09T07:31:56.626Z,98.70
2019-03-09T07:34:24.778Z,98.40
2019-03-09T07:36:50.794Z,98.00
2019-03-09T07:39:17.065Z,97.30
2019-03-09T07:41:43.070Z,96.70
2019-03-09T07:44:09.085Z,96.20
2019-03-09T07:46:35.102Z,95.20
2019-03-09T07:49:01.133Z,94.80
2019-03-09T07:51:27.391Z,95.10
2019-03-09T07:53:53.404Z,91.60
2019-03-09T07:56:19.431Z,88.30
2019-03-09T07:58:45.475Z,85.20
2019-03-09T08:01:11.793Z,75.50
2019-03-09T08:03:37.799Z,71.00
2019-03-09T08:06:03.831Z,71.60
2019-03-09T08:08:30.176Z,73.40
2019-03-09T08:10:56.198Z,75.10
2019-03-09T08:13:22.221Z,74.00
2019-03-09T08:15:48.274Z,73.10
2019-03-09T08:18:14.697Z,74.10
2019-03-09T08:20:40.712Z,75.40
2019-03-09T08:23:06.724Z,77.30
2019-03-09T08:25:32.734Z,77.10
2019-03-09T08:27:59.102Z,78.40
2019-03-09T08:30:26.505Z,79.40
2019-03-09T08:32:52.804Z,79.90
2019-03-09T08:35:19.239Z,78.60
2019-03-09T08:37:45.790Z,79.50
2019-03-09T08:40:13.676Z,79.60
2019-03-09T08:42:39.683Z,81.80
2019-03-09T08:45:08.307Z,83.80
2019-03-09T08:47:34.567Z,84.30
2019-03-09T08:50:00.578Z,84.70
2019-03-09T08:52:26.606Z,85.50
2019-03-09T08:54:52.632Z,87.20
2019-03-09T08:57:18.964Z,88.60
2019-03-09T08:59:44.978Z,88.80
2019-03-09T09:02:11.018Z,88.00
2019-03-09T09:04:37.446Z,86.60
2019-03-09T09:07:03.688Z,84.80
2019-03-09T09:09:29.689Z,84.90
2019-03-09T09:11:55.712Z,84.20
2019-03-09T09:14:21.717Z,84.10
2019-03-09T09:16:47.748Z,83.30
2019-03-09T09:19:14.031Z,80.60
2019-03-09T09:21:40.046Z,79.80
2019-03-09T09:24:06.057Z,79.60
2019-03-09T09:26:32.077Z,79.10
2019-03-09T09:28:58.408Z,78.70
2019-03-09T09:31:24.446Z,76.60
2019-03-09T09:33:50.457Z,74.30
2019-03-09T09:36:16.781Z,72.40
2019-03-09T09:38:43.118Z,71.90
2019-03-09T09:41:09.129Z,70.10
2019-03-09T09:43:35.161Z,69.50
2019-03-09T09:46:01.170Z,67.60
2019-03-09T09:48:27.188Z,66.80
2019-03-09T09:50:53.538Z,66.20
2019-03-09T09:53:19.566Z,65.30
2019-03-09T09:55:45.589Z,64.70
2019-03-09T09:58:11.623Z,64.50
2019-03-09T10:00:37.938Z,65.00
2019-03-09T10:03:03.949Z,64.10
2019-03-09T10:05:29.963Z,63.80
2019-03-09T10:07:56.225Z,63.60
2019-03-09T10:10:22.580Z,63.20
2019-03-09T10:12:48.584Z,62.90
2019-03-09T10:15:28.636Z,62.30
2019-03-09T10:17:54.962Z,61.90
2019-03-09T10:20:21.287Z,61.80
2019-03-09T10:22:47.602Z,61.80
2019-03-09T10:25:13.644Z,62.20
2019-03-09T10:27:40.082Z,63.00
2019-03-09T10:30:15.729Z,63.50
2019-03-09T10:32:41.749Z,65.30
2019-03-09T10:35:07.997Z,66.90
2019-03-09T10:37:34.010Z,68.60
2019-03-09T10:40:00.043Z,68.90
2019-03-09T10:42:26.093Z,69.70
2019-03-09T10:44:52.338Z,70.30
2019-03-09T10:47:18.670Z,70.60
2019-03-09T10:49:44.672Z,71.10
2019-03-09T10:52:10.700Z,71.00
2019-03-09T10:54:36.720Z,70.40
2019-03-09T10:57:03.021Z,69.90
2019-03-09T10:59:29.058Z,68.70
2019-03-09T11:01:55.098Z,65.60
2019-03-09T11:04:27.469Z,64.10
2019-03-09T11:06:49.037Z,62.90
2019-03-09T11:09:15.034Z,62.20
2019-03-09T11:11:41.066Z,61.80
2019-03-09T11:14:07.093Z,61.90
2019-03-09T11:16:33.129Z,63.20
2019-03-09T11:18:59.141Z,63.10
2019-03-09T11:21:25.181Z,62.40
2019-03-09T11:23:51.294Z,61.90
2019-03-09T11:26:17.686Z,61.70
2019-03-09T11:28:43.697Z,62.60
2019-03-09T11:31:09.713Z,63.70
2019-03-09T11:33:36.007Z,64.60
2019-03-09T11:36:02.020Z,65.60
2019-03-09T11:38:28.302Z,66.70
2019-03-09T11:40:58.569Z,67.90
2019-03-09T11:43:22.284Z,68.90
2019-03-09T11:45:48.626Z,69.80
2019-03-09T11:48:14.957Z,70.50
2019-03-09T11:50:41.294Z,71.40
2019-03-09T11:53:07.622Z,72.10
2019-03-09T11:55:33.659Z,71.60
2019-03-09T11:57:59.666Z,71.30
2019-03-09T12:00:27.594Z,71.20
2019-03-09T12:02:54.073Z,71.40
2019-03-09T12:05:20.121Z,71.20
2019-03-09T12:07:46.125Z,70.30
2019-03-09T12:10:12.772Z,69.60
2019-03-09T12:12:38.785Z,69.50
2019-03-09T12:15:08.190Z,69.00
2019-03-09T12:17:34.317Z,69.30
2019-03-09T12:20:00.649Z,70.80
2019-03-09T12:22:26.656Z,70.50
2019-03-09T12:24:52.662Z,71.10
2019-03-09T12:27:18.698Z,71.00
2019-03-09T12:29:44.705Z,71.30
2019-03-09T12:32:10.731Z,71.60
2019-03-09T12:34:36.750Z,71.90
2019-03-09T12:37:02.784Z,71.30
2019-03-09T12:39:28.790Z,70.00
2019-03-09T12:41:55.210Z,68.10
2019-03-09T12:44:21.201Z,67.30
2019-03-09T12:46:47.223Z,67.20
2019-03-09T12:49:13.555Z,66.60
2019-03-09T12:51:39.573Z,66.50
2019-03-09T12:54:05.608Z,66.60
2019-03-09T12:56:31.629Z,67.00
2019-03-09T12:58:57.642Z,67.90
2019-03-09T13:01:23.682Z,68.60
2019-03-09T13:03:50.066Z,68.60
2019-03-09T13:06:16.132Z,68.90
2019-03-09T13:08:42.158Z,68.70
2019-03-09T13:11:08.186Z,67.80
2019-03-09T13:13:34.191Z,68.00
2019-03-09T13:16:00.199Z,68.80
2019-03-09T13:18:26.436Z,69.30
2019-03-09T13:20:52.451Z,69.70
2019-03-09T13:23:18.712Z,69.00
2019-03-09T13:25:45.137Z,68.20
2019-03-09T13:28:11.146Z,67.60
2019-03-09T13:30:38.005Z,67.70
2019-03-09T13:33:04.034Z,68.10
2019-03-09T13:35:30.051Z,68.20
2019-03-09T13:37:56.074Z,69.70
2019-03-09T13:40:22.509Z,72.30
2019-03-09T13:42:48.730Z,75.30
2019-03-09T13:45:15.740Z,77.40
2019-03-09T13:47:42.333Z,79.40
2019-03-09T13:50:10.514Z,80.40
2019-03-09T13:52:36.558Z,80.20
2019-03-09T13:55:04.357Z,81.10
2019-03-09T13:57:30.378Z,82.40
2019-03-09T13:59:56.722Z,83.90
2019-03-09T14:02:22.763Z,84.40
2019-03-09T14:04:48.780Z,85.20
2019-03-09T14:07:14.809Z,86.60
2019-03-09T14:09:40.819Z,89.20
2019-03-09T14:12:06.843Z,90.00
2019-03-09T14:14:32.866Z,88.30
2019-03-09T14:16:58.899Z,87.60
2019-03-09T14:19:24.907Z,86.90
2019-03-09T14:21:50.931Z,86.30
2019-03-09T14:24:16.930Z,86.50
2019-03-09T14:26:42.947Z,85.80
2019-03-09T14:29:08.969Z,86.20
2019-03-09T14:31:34.991Z,85.40
2019-03-09T14:34:00.990Z,84.30
2019-03-09T14:36:27.008Z,83.60
2019-03-09T14:38:53.016Z,83.50
2019-03-09T14:41:19.046Z,83.00
2019-03-09T14:43:45.078Z,83.30
2019-03-09T14:46:11.083Z,82.60
2019-03-09T14:48:37.094Z,83.90
2019-03-09T14:51:03.122Z,85.30
2019-03-09T14:53:29.389Z,85.00
2019-03-09T14:55:55.414Z,84.50
2019-03-09T14:58:21.748Z,84.80
2019-03-09T15:00:47.770Z,85.80
2019-03-09T15:03:13.764Z,84.70
2019-03-09T15:05:40.044Z,83.40
2019-03-09T15:08:06.064Z,82.20
2019-03-09T15:10:32.083Z,81.50
2019-03-09T15:12:58.081Z,78.30
2019-03-09T15:15:24.111Z,77.40
2019-03-09T15:17:50.124Z,76.50
2019-03-09T15:20:16.333Z,76.30
2019-03-09T15:22:42.356Z,74.80
2019-03-09T15:25:11.675Z,74.60
2019-03-09T15:27:37.685Z,72.80
2019-03-09T15:30:12.404Z,71.60
2019-03-09T15:32:38.656Z,71.00
2019-03-09T15:35:06.189Z,69.00
2019-03-09T15:37:32.482Z,65.60
2019-03-09T15:39:58.539Z,63.10
2019-03-09T15:42:24.557Z,61.90
2019-03-09T15:44:50.581Z,60.90
2019-03-09T15:47:16.617Z,59.80
2019-03-09T15:49:42.639Z,58.30
2019-03-09T15:52:10.387Z,56.20
2019-03-09T15:54:37.301Z,55.00
2019-03-09T15:57:03.407Z,55.20
2019-03-09T15:59:29.659Z,54.90
2019-03-09T16:01:55.995Z,54.60
2019-03-09T16:04:22.005Z,54.90
2019-03-09T16:06:48.016Z,56.20
2019-03-09T16:09:14.042Z,55.70
2019-03-09T16:11:45.114Z,55.40
2019-03-09T16:14:07.971Z,55.50
2019-03-09T16:16:35.245Z,55.50
2019-03-09T16:19:01.254Z,54.60
2019-03-09T16:21:32.595Z,54.40
2019-03-09T16:23:58.613Z,54.30
2019-03-09T16:26:24.725Z,53.50
2019-03-09T16:28:51.071Z,53.30
2019-03-09T16:31:17.936Z,54.40
2019-03-09T16:33:43.937Z,54.70
2019-03-09T16:36:10.117Z,54.90
2019-03-09T16:38:36.139Z,55.10
2019-03-09T16:41:06.822Z,55.30
2019-03-09T16:43:33.162Z,56.30
2019-03-09T16:45:59.198Z,55.30
2019-03-09T16:48:25.508Z,55.50
2019-03-09T16:50:51.547Z,55.50
2019-03-09T16:53:17.572Z,55.70
2019-03-09T16:55:43.598Z,54.90
2019-03-09T16:58:09.614Z,54.50
2019-03-09T17:00:35.637Z,55.70
2019-03-09T17:03:01.641Z,54.80
2019-03-09T17:05:27.926Z,55.20
2019-03-09T17:07:54.167Z,55.60
2019-03-09T17:10:20.194Z,56.00
2019-03-09T17:12:46.203Z,56.20
2019-03-09T17:15:15.286Z,56.50
2019-03-09T17:17:41.333Z,56.60
2019-03-09T17:20:10.407Z,56.90
2019-03-09T17:22:36.404Z,57.20
2019-03-09T17:25:03.724Z,57.80
2019-03-09T17:27:29.721Z,58.20
2019-03-09T17:29:56.005Z,58.40
2019-03-09T17:32:25.730Z,59.40
2019-03-09T17:34:50.635Z,58.90
2019-03-09T17:37:16.646Z,58.70
2019-03-09T17:39:42.663Z,58.70
2019-03-09T17:42:08.692Z,59.10
2019-03-09T17:44:34.715Z,58.90
2019-03-09T17:47:00.749Z,59.90
2019-03-09T17:49:27.069Z,59.50
2019-03-09T17:51:53.111Z,59.40
2019-03-09T17:54:19.124Z,58.90
2019-03-09T17:56:45.368Z,58.90
2019-03-09T17:59:11.596Z,59.00
2019-03-09T18:01:38.522Z,59.10
2019-03-09T18:04:04.852Z,59.30
2019-03-09T18:06:30.877Z,58.50
2019-03-09T18:08:57.282Z,58.40
2019-03-09T18:11:23.304Z,58.20
2019-03-09T18:13:49.308Z,58.30
2019-03-09T18:16:15.312Z,58.70
2019-03-09T18:18:41.333Z,58.90
2019-03-09T18:21:07.643Z,59.00
2019-03-09T18:23:33.649Z,59.00
2019-03-09T18:25:59.680Z,59.30
2019-03-09T18:28:25.690Z,59.00
2019-03-09T18:30:51.697Z,59.20
2019-03-09T18:33:17.716Z,59.30
2019-03-09T18:35:43.768Z,59.20
2019-03-09T18:38:09.782Z,58.90
2019-03-09T18:40:36.058Z,59.00
2019-03-09T18:43:02.375Z,59.10
2019-03-09T18:45:28.381Z,60.00
2019-03-09T18:47:54.414Z,62.60
2019-03-09T18:50:20.426Z,62.80
2019-03-09T18:52:46.450Z,64.50
2019-03-09T18:55:12.553Z,65.30
2019-03-09T18:57:38.584Z,65.80
2019-03-09T19:00:11.503Z,66.60
2019-03-09T19:02:37.522Z,67.90
2019-03-09T19:05:04.128Z,69.20
2019-03-09T19:07:30.147Z,69.20
2019-03-09T19:09:56.394Z,69.10
2019-03-09T19:12:22.424Z,68.20
2019-03-09T19:14:48.678Z,67.90
2019-03-09T19:17:14.698Z,68.70
2019-03-09T19:19:40.693Z,67.80
2019-03-09T19:22:06.725Z,66.30
2019-03-09T19:24:32.733Z,72.30
2019-03-09T19:26:58.758Z,78.20
2019-03-09T19:29:25.034Z,83.10
2019-03-09T19:31:51.074Z,87.50
2019-03-09T19:34:17.113Z,88.70
2019-03-09T19:36:43.137Z,89.30
2019-03-09T19:39:09.169Z,90.20
2019-03-09T19:41:35.200Z,90.30
2019-03-09T19:44:01.210Z,91.50
2019-03-09T19:46:27.233Z,92.50
2019-03-09T19:48:53.289Z,92.40
2019-03-09T19:51:19.306Z,93.10
2019-03-09T19:53:45.665Z,94.00
2019-03-09T19:56:11.800Z,94.80
2019-03-09T19:58:38.195Z,95.30
2019-03-09T20:01:04.218Z,96.00
2019-03-09T20:03:30.234Z,94.10
2019-03-09T20:05:56.253Z,89.70
2019-03-09T20:08:22.249Z,83.40
2019-03-09T20:10:48.266Z,75.90
2019-03-09T20:13:14.277Z,75.20
2019-03-09T20:15:40.289Z,76.50
2019-03-09T20:18:06.293Z,73.90
2019-03-09T20:20:32.310Z,71.80
2019-03-09T20:22:58.344Z,69.40
2019-03-09T20:25:24.353Z,68.70
2019-03-09T20:27:50.406Z,68.60
2019-03-09T20:30:18.914Z,68.30
2019-03-09T20:32:44.935Z,67.30
2019-03-09T20:35:10.960Z,67.40
2019-03-09T20:37:36.969Z,66.70
2019-03-09T20:40:08.584Z,66.80
2019-03-09T20:42:34.820Z,67.50
2019-03-09T20:45:00.846Z,66.90
2019-03-09T20:47:27.175Z,67.20
2019-03-09T20:49:53.190Z,67.50
2019-03-09T20:52:19.636Z,67.20
2019-03-09T20:54:45.653Z,68.10
2019-03-09T20:57:11.657Z,68.30
2019-03-09T20:59:37.698Z,68.20
2019-03-09T21:02:03.697Z,68.10
2019-03-09T21:04:30.065Z,68.00
2019-03-09T21:06:56.408Z,67.60
2019-03-09T21:09:22.424Z,67.20
2019-03-09T21:11:48.446Z,67.10
2019-03-09T21:14:14.461Z,66.30
2019-03-09T21:16:40.484Z,67.00
2019-03-09T21:19:06.493Z,66.70
2019-03-09T21:21:32.492Z,66.00
2019-03-09T21:23:58.540Z,66.00
2019-03-09T21:26:24.541Z,65.60
2019-03-09T21:28:50.561Z,65.60
2019-03-09T21:31:17.658Z,65.80
2019-03-09T21:33:43.678Z,65.10
2019-03-09T21:36:09.678Z,65.60
2019-03-09T21:38:35.937Z,65.20
2019-03-09T21:41:01.962Z,64.90
2019-03-09T21:43:28.119Z,65.10
2019-03-09T21:45:54.172Z,65.40
2019-03-09T21:48:20.174Z,65.40
2019-03-09T21:50:46.201Z,65.70
2019-03-09T21:53:12.547Z,65.30
2019-03-09T21:55:38.566Z,64.80
2019-03-09T21:58:04.574Z,65.70
2019-03-09T22:00:30.868Z,64.90
2019-03-09T22:02:56.871Z,65.20
2019-03-09T22:05:22.891Z,64.80
2019-03-09T22:07:48.902Z,64.60
2019-03-09T22:10:14.914Z,66.30
2019-03-09T22:12:40.929Z,64.80
2019-03-09T22:15:14.055Z,65.10
2019-03-09T22:17:40.316Z,65.00
2019-03-09T22:20:08.899Z,64.60
2019-03-09T22:22:34.910Z,65.50
2019-03-09T22:25:00.914Z,64.60
2019-03-09T22:27:26.926Z,64.60
2019-03-09T22:29:52.914Z,65.10
2019-03-09T22:32:19.664Z,65.20
2019-03-09T22:34:45.811Z,64.20
2019-03-09T22:37:12.087Z,63.40
2019-03-09T22:39:38.426Z,62.50
2019-03-09T22:42:04.461Z,63.10
2019-03-09T22:44:30.461Z,62.80
2019-03-09T22:46:56.489Z,63.40
2019-03-09T22:49:22.844Z,63.30
2019-03-09T22:51:48.876Z,64.20
2019-03-09T22:54:15.182Z,64.80
2019-03-09T22:56:41.204Z,64.90
2019-03-09T22:59:07.543Z,65.40
2019-03-09T23:01:34.075Z,65.40
2019-03-09T23:04:00.077Z,65.30
2019-03-09T23:06:26.438Z,65.60
2019-03-09T23:08:52.761Z,65.30
2019-03-09T23:11:19.094Z,65.40
2019-03-09T23:13:45.119Z,65.00
2019-03-09T23:16:11.130Z,65.30
2019-03-09T23:18:37.146Z,65.90
2019-03-09T23:21:03.160Z,67.10
2019-03-09T23:23:29.225Z,67.40
2019-03-09T23:25:55.286Z,67.60
2019-03-09T23:28:21.664Z,67.30
2019-03-09T23:30:47.674Z,67.80
2019-03-09T23:33:14.029Z,67.70
2019-03-09T23:35:40.034Z,68.20
2019-03-09T23:38:06.050Z,69.00
2019-03-09T23:40:32.061Z,69.00
2019-03-09T23:42:58.073Z,69.50
2019-03-09T23:45:25.881Z,68.20
2019-03-09T23:47:51.923Z,67.80
2019-03-09T23:50:17.933Z,68.50
2019-03-09T23:52:44.790Z,69.40
2019-03-09T23:55:21.205Z,67.90
2019-03-09T23:57:39.738Z,67.40
